createdAt,value
2023-04-05T00:01:12.397Z,2.40
2023-04-05T00:06:20.280Z,2.88
2023-04-05T00:11:23.503Z,2.60
2023-04-05T00:16:28.915Z,2.72
2023-04-05T00:21:33.137Z,2.63
2023-04-05T00:26:36.290Z,3.05
2023-04-05T00:31:40.551Z,2.80
2023-04-05T00:36:43.383Z,2.85
2023-04-05T00:41:48.613Z,3.00
2023-04-05T00:46:52.985Z,3.00
2023-04-05T00:51:56.055Z,3.13
2023-04-05T00:56:59.551Z,3.10
2023-04-05T01:02:09.536Z,4.47
2023-04-05T01:07:20.090Z,3.05
2023-04-05T01:12:26.211Z,3.30
2023-04-05T01:17:37.455Z,3.15
2023-04-05T01:23:25.016Z,3.45
2023-04-05T01:28:57.657Z,3.75
2023-04-05T01:34:09.206Z,3.67
2023-04-05T01:39:16.284Z,3.38
2023-04-05T01:44:19.139Z,4.05
2023-04-05T01:49:24.411Z,3.63
2023-04-05T01:54:28.392Z,3.97
2023-04-05T01:59:31.376Z,3.75
2023-04-05T02:04:39.419Z,3.47
2023-04-05T02:09:42.187Z,3.47
2023-04-05T02:14:45.031Z,3.90
2023-04-05T02:19:49.842Z,3.97
2023-04-05T02:24:52.609Z,3.72
2023-04-05T02:29:55.785Z,4.10
2023-04-05T02:34:59.918Z,3.70
2023-04-05T02:40:08.098Z,4.18
2023-04-05T02:45:13.496Z,3.90
2023-04-05T02:50:20.548Z,4.00
2023-04-05T02:55:23.416Z,4.05
2023-04-05T03:00:26.340Z,3.55
2023-04-05T03:05:33.257Z,3.80
2023-04-05T03:10:39.036Z,4.00
2023-04-05T03:15:49.431Z,3.95
2023-04-05T03:20:56.850Z,3.83
2023-04-05T03:26:01.301Z,4.45
2023-04-05T03:31:07.780Z,4.22
2023-04-05T03:36:16.420Z,4.20
2023-04-05T03:41:20.845Z,5.10
2023-04-05T03:46:26.158Z,4.43
2023-04-05T03:51:32.662Z,4.13
2023-04-05T03:56:35.598Z,4.07
2023-04-05T04:01:46.861Z,4.55
2023-04-05T04:06:52.423Z,4.57
2023-04-05T04:11:59.786Z,4.82
2023-04-05T04:17:03.335Z,4.93
2023-04-05T04:22:20.659Z,5.05
2023-04-05T04:27:44.837Z,4.28
2023-04-05T04:33:09.220Z,4.25
2023-04-05T04:38:20.442Z,4.13
2023-04-05T04:43:43.951Z,3.83
2023-04-05T04:49:10.382Z,3.97
2023-04-05T04:54:16.816Z,3.67
2023-04-05T04:59:19.757Z,4.22
2023-04-05T05:04:22.860Z,5.20
2023-04-05T05:09:27.280Z,5.00
2023-04-05T05:14:33.805Z,5.32
2023-04-05T05:19:36.608Z,5.80
2023-04-05T05:24:41.352Z,7.00
2023-04-05T05:29:44.258Z,6.00
2023-04-05T05:34:48.625Z,6.05
2023-04-05T05:39:52.818Z,6.38
2023-04-05T05:44:55.624Z,6.50
2023-04-05T05:49:58.737Z,6.38
2023-04-05T05:55:02.864Z,5.93
2023-04-05T06:00:09.417Z,5.97
2023-04-05T06:05:14.466Z,4.93
2023-04-05T06:10:18.770Z,4.13
2023-04-05T06:15:21.524Z,5.72
2023-04-05T06:20:24.281Z,5.32
2023-04-05T06:25:28.512Z,4.57
2023-04-05T06:30:31.588Z,4.60
2023-04-05T06:35:34.334Z,4.35
2023-04-05T06:40:38.874Z,4.47
2023-04-05T06:45:41.776Z,4.65
2023-04-05T06:50:44.547Z,4.38
2023-04-05T06:55:51.546Z,5.07
2023-04-05T07:00:54.861Z,4.43
2023-04-05T07:06:00.122Z,4.80
2023-04-05T07:11:04.260Z,4.88
2023-04-05T07:16:07.528Z,4.60
2023-04-05T07:21:10.344Z,4.40
2023-04-05T07:26:14.456Z,4.28
2023-04-05T07:31:17.488Z,3.50
2023-04-05T07:36:20.462Z,2.83
2023-04-05T07:41:26.513Z,2.28
2023-04-05T07:46:30.013Z,2.50
2023-04-05T07:51:36.168Z,2.75
2023-04-05T07:56:40.582Z,2.15
2023-04-05T08:01:43.409Z,3.20
2023-04-05T08:06:46.899Z,2.13
2023-04-05T08:11:51.007Z,2.42
2023-04-05T08:16:53.815Z,2.53
2023-04-05T08:21:56.586Z,2.92
2023-04-05T08:27:00.944Z,3.08
2023-04-05T08:32:04.414Z,2.60
2023-04-05T08:37:07.624Z,3.22
2023-04-05T08:42:16.792Z,2.30
2023-04-05T08:47:20.701Z,2.90
2023-04-05T08:52:23.718Z,3.00
2023-04-05T08:57:30.313Z,2.67
2023-04-05T09:02:34.588Z,3.17
2023-04-05T09:07:38.587Z,3.25
2023-04-05T09:12:43.283Z,3.03
2023-04-05T09:17:46.506Z,3.40
2023-04-05T09:22:49.390Z,3.78
2023-04-05T09:27:57.322Z,2.70
2023-04-05T09:33:00.298Z,2.22
2023-04-05T09:38:05.176Z,3.28
2023-04-05T09:43:11.828Z,2.80
2023-04-05T09:48:14.610Z,2.60
2023-04-05T09:53:18.723Z,2.63
2023-04-05T09:58:25.753Z,2.70
2023-04-05T10:03:31.147Z,2.55
2023-04-05T10:08:34.284Z,2.63
2023-04-05T10:13:40.576Z,2.90
2023-04-05T10:18:50.521Z,2.47
2023-04-05T10:24:01.477Z,2.97
2023-04-05T10:29:13.189Z,2.42
2023-04-05T10:34:25.508Z,3.05
2023-04-05T10:39:30.428Z,3.30
2023-04-05T10:44:37.478Z,3.30
2023-04-05T10:49:43.297Z,3.80
2023-04-05T10:54:46.497Z,3.55
2023-04-05T10:59:52.514Z,4.47
2023-04-05T11:04:56.892Z,3.17
2023-04-05T11:10:02.744Z,3.47
2023-04-05T11:15:34.393Z,3.20
2023-04-05T11:20:56.165Z,2.90
2023-04-05T11:26:06.739Z,2.80
2023-04-05T11:31:19.121Z,3.70
2023-04-05T11:36:33.516Z,2.80
2023-04-05T11:41:36.245Z,3.15
2023-04-05T11:46:41.335Z,3.30
2023-04-05T11:51:48.577Z,5.72
2023-04-05T11:56:53.059Z,3.50
2023-04-05T12:02:01.272Z,3.90
2023-04-05T12:07:11.698Z,3.75
2023-04-05T12:12:17.729Z,3.95
2023-04-05T12:17:39.240Z,4.13
2023-04-05T12:22:43.389Z,3.70
2023-04-05T12:27:46.748Z,3.67
2023-04-05T12:32:52.610Z,3.88
2023-04-05T12:38:00.917Z,3.88
2023-04-05T12:43:05.041Z,3.53
2023-04-05T12:48:11.764Z,5.15
2023-04-05T12:53:20.194Z,3.63
2023-04-05T12:58:25.050Z,3.78
2023-04-05T13:03:29.375Z,3.78
2023-04-05T13:08:32.245Z,3.88
2023-04-05T13:13:35.259Z,3.70
2023-04-05T13:18:39.511Z,3.90
2023-04-05T13:23:42.657Z,4.57
2023-04-05T13:28:48.229Z,4.00
2023-04-05T13:33:52.738Z,4.15
2023-04-05T13:38:55.463Z,4.70
2023-04-05T13:44:01.118Z,4.85
2023-04-05T13:49:06.146Z,4.10
2023-04-05T13:54:28.058Z,4.03
2023-04-05T13:59:31.622Z,4.38
2023-04-05T14:04:35.931Z,11.68
2023-04-05T14:09:38.760Z,4.35
2023-04-05T14:14:43.093Z,5.22
2023-04-05T14:19:49.961Z,4.45
2023-04-05T14:25:02.831Z,4.25
2023-04-05T14:30:59.531Z,4.25
2023-04-05T14:36:11.569Z,3.83
2023-04-05T14:41:20.527Z,4.57
2023-04-05T14:46:23.895Z,4.30
2023-04-05T14:51:37.268Z,4.22
2023-04-05T14:56:40.358Z,4.10
2023-04-05T15:01:45.584Z,3.97
2023-04-05T15:06:50.003Z,4.57
2023-04-05T15:11:56.032Z,3.70
2023-04-05T15:16:59.392Z,3.83
2023-04-05T15:22:24.467Z,4.05
2023-04-05T15:27:27.774Z,3.97
2023-04-05T15:32:42.170Z,4.22
2023-04-05T15:37:58.644Z,3.75
2023-04-05T15:48:34.105Z,3.45
2023-04-05T15:53:46.452Z,3.70
2023-04-05T15:59:00.854Z,4.20
2023-04-05T16:04:11.795Z,3.63
2023-04-05T16:09:16.366Z,3.33
2023-04-05T16:14:19.292Z,3.80
2023-04-05T16:19:23.484Z,3.33
2023-04-05T16:24:30.321Z,3.80
2023-04-05T16:29:33.307Z,3.70
2023-04-05T16:34:50.583Z,3.72
2023-04-05T16:40:02.935Z,3.75
2023-04-05T16:45:08.022Z,3.70
2023-04-05T16:50:11.660Z,3.38
2023-04-05T16:55:15.871Z,3.97
2023-04-05T17:00:19.082Z,3.67
2023-04-05T17:05:22.042Z,3.95
2023-04-05T17:10:53.581Z,3.90
2023-04-05T17:15:56.487Z,3.67
2023-04-05T17:20:59.488Z,3.55
2023-04-05T17:26:04.202Z,3.80
2023-04-05T17:31:07.300Z,3.97
2023-04-05T17:36:29.744Z,3.42
2023-04-05T17:41:40.205Z,3.58
2023-04-05T17:47:01.291Z,3.60
2023-04-05T17:52:56.040Z,3.90
2023-04-05T17:58:08.811Z,4.60
2023-04-05T18:29:51.647Z,3.92
2023-04-05T19:22:17.683Z,2.45
2023-04-05T19:47:50.324Z,2.95
2023-04-05T19:53:02.910Z,3.72
2023-04-05T20:04:39.015Z,3.03
2023-04-05T20:10:58.210Z,2.50
2023-04-05T20:16:01.321Z,3.33
2023-04-05T20:21:05.873Z,3.47
2023-04-05T20:26:45.781Z,3.33
2023-04-05T20:31:54.278Z,2.85
2023-04-05T20:37:01.610Z,3.20
2023-04-05T20:42:10.305Z,3.58
2023-04-05T20:47:13.578Z,5.68
2023-04-05T20:52:18.120Z,5.85
2023-04-05T20:57:20.999Z,5.70
2023-04-05T21:02:31.364Z,3.35
2023-04-05T21:07:36.981Z,3.50
2023-04-05T21:12:40.010Z,3.90
2023-04-05T21:23:32.791Z,3.95
2023-04-05T21:28:36.866Z,2.80
2023-04-05T21:33:47.186Z,2.80
2023-04-05T21:38:51.509Z,3.28
2023-04-05T21:44:33.409Z,3.55
2023-04-05T21:50:09.368Z,3.30
2023-04-05T21:55:47.423Z,3.70
2023-04-05T22:00:53.364Z,4.32
2023-04-05T22:05:56.219Z,3.38
2023-04-05T22:11:54.727Z,3.20
2023-04-05T22:22:04.776Z,2.92
2023-04-05T22:27:09.243Z,2.55
2023-04-05T22:32:14.947Z,3.15
2023-04-05T22:37:17.813Z,3.05
2023-04-05T22:42:22.058Z,2.80
2023-04-05T22:47:24.958Z,2.90
2023-04-05T22:52:27.890Z,2.42
2023-04-05T22:57:32.462Z,2.53
2023-04-05T23:02:35.437Z,2.33
2023-04-05T23:07:38.356Z,2.50
2023-04-05T23:12:43.802Z,2.33
2023-04-05T23:17:46.910Z,2.70
2023-04-05T23:22:54.454Z,2.60
2023-04-05T23:27:58.712Z,2.57
2023-04-05T23:33:02.877Z,2.60
2023-04-05T23:38:07.173Z,2.70
2023-04-05T23:43:12.046Z,2.58
2023-04-05T23:48:14.988Z,3.33
2023-04-05T23:53:17.966Z,2.60
2023-04-05T23:58:22.332Z,3.40
